Time;durP1;ratioP1;P1;durP2;ratioP2;P2;SDS_P1;SDS_P2;PMS_P1;PMS_P2;Temp;Humidity;BMP_temperature;BMP_pressure;BME280_temperature;BME280_humidity;BME280_pressure;Samples;Min_cycle;Max_cycle;Signal;HPM_P1;HPM_P2
2023/02/09 00:01:08;;;;;;;8.18;6.35;;;;;;;;;;4969738;28;20042;-64
2023/02/09 00:03:33;;;;;;;8.93;6.70;;;;;;;;;;4986369;28;20034;-66
2023/02/09 00:05:59;;;;;;;8.80;6.32;;;;;;;;;;4985517;28;20423;-69
2023/02/09 00:08:25;;;;;;;9.13;6.88;;;;;;;;;;4970561;28;20555;-68
2023/02/09 00:10:50;;;;;;;9.50;6.90;;;;;;;;;;4985995;28;20044;-68
2023/02/09 00:13:21;;;;;;;8.67;6.23;;;;;;;;;;4970081;28;20399;-63
2023/02/09 00:15:57;;;;;;;9.40;6.80;;;;;;;;;;4986088;28;20360;-68
2023/02/09 00:18:23;;;;;;;9.23;6.28;;;;;;;;;;4984997;28;20054;-65
2023/02/09 00:20:57;;;;;;;8.02;6.53;;;;;;;;;;4984855;28;20055;-69
2023/02/09 00:23:23;;;;;;;8.90;6.45;;;;;;;;;;4968941;28;20053;-64
2023/02/09 00:25:49;;;;;;;9.73;6.60;;;;;;;;;;4968945;28;20022;-67
2023/02/09 00:28:14;;;;;;;9.27;6.93;;;;;;;;;;4986454;28;20015;-67
2023/02/09 00:30:39;;;;;;;8.20;6.13;;;;;;;;;;4981374;28;20561;-68
2023/02/09 00:33:04;;;;;;;9.03;6.47;;;;;;;;;;4986663;28;20735;-64
2023/02/09 00:35:29;;;;;;;9.07;6.77;;;;;;;;;;4969452;28;20770;-65
2023/02/09 00:37:55;;;;;;;9.13;6.57;;;;;;;;;;4968543;28;20623;-68
2023/02/09 00:40:20;;;;;;;8.67;6.53;;;;;;;;;;4984413;28;20273;-68
2023/02/09 00:42:45;;;;;;;8.80;6.57;;;;;;;;;;4985307;28;20336;-63
2023/02/09 00:45:10;;;;;;;9.90;6.63;;;;;;;;;;4970403;28;20813;-68
2023/02/09 00:47:36;;;;;;;8.15;6.30;;;;;;;;;;4952409;28;20461;-65
2023/02/09 00:50:05;;;;;;;8.90;6.60;;;;;;;;;;4969274;28;20451;-67
2023/02/09 00:52:30;;;;;;;8.13;6.32;;;;;;;;;;4970411;28;20257;-68
2023/02/09 00:54:55;;;;;;;7.72;6.22;;;;;;;;;;4986731;28;20027;-64
2023/02/09 00:57:21;;;;;;;8.80;6.60;;;;;;;;;;4984409;28;20050;-68
2023/02/09 00:59:49;;;;;;;9.32;6.78;;;;;;;;;;4986893;28;20295;-69
2023/02/09 01:02:14;;;;;;;8.70;6.50;;;;;;;;;;4988829;28;20113;-68
2023/02/09 01:04:39;;;;;;;8.45;6.18;;;;;;;;;;4990379;28;20161;-64
2023/02/09 01:07:05;;;;;;;10.20;6.87;;;;;;;;;;4989015;28;20011;-65
2023/02/09 01:09:30;;;;;;;8.68;6.72;;;;;;;;;;4971729;28;20868;-66
2023/02/09 01:11:55;;;;;;;9.03;6.50;;;;;;;;;;4977223;28;20442;-70
2023/02/09 01:14:20;;;;;;;10.00;6.93;;;;;;;;;;4972461;28;20261;-66
2023/02/09 01:16:45;;;;;;;8.13;6.23;;;;;;;;;;4989803;28;20018;-66
2023/02/09 01:19:11;;;;;;;8.87;6.23;;;;;;;;;;4972685;28;20300;-65
2023/02/09 01:21:37;;;;;;;9.20;6.95;;;;;;;;;;4987163;28;20783;-68
2023/02/09 01:24:02;;;;;;;10.00;6.45;;;;;;;;;;4969351;28;20025;-69
2023/02/09 01:26:27;;;;;;;9.38;6.95;;;;;;;;;;4984453;28;20573;-64
2023/02/09 01:28:53;;;;;;;8.90;6.78;;;;;;;;;;4982702;28;20021;-68
2023/02/09 01:31:21;;;;;;;8.90;6.47;;;;;;;;;;4972610;28;20093;-70
2023/02/09 01:33:46;;;;;;;8.90;6.75;;;;;;;;;;4989683;28;20039;-67
2023/02/09 01:36:11;;;;;;;9.45;6.55;;;;;;;;;;4990010;28;20142;-66
2023/02/09 01:38:36;;;;;;;9.73;6.70;;;;;;;;;;4984776;28;20516;-67
2023/02/09 01:41:02;;;;;;;9.57;7.22;;;;;;;;;;4956611;28;20270;-67
2023/02/09 01:43:27;;;;;;;9.20;6.47;;;;;;;;;;4974112;28;20130;-69
2023/02/09 01:45:55;;;;;;;8.97;6.57;;;;;;;;;;4966835;28;20437;-62
2023/02/09 01:48:21;;;;;;;8.32;6.18;;;;;;;;;;4967741;28;20301;-62
2023/02/09 01:50:48;;;;;;;8.10;6.05;;;;;;;;;;4970821;28;20126;-68
2023/02/09 01:53:13;;;;;;;8.75;6.60;;;;;;;;;;4983542;28;20186;-67
2023/02/09 01:55:39;;;;;;;10.57;6.75;;;;;;;;;;4986250;28;20109;-68
2023/02/09 01:58:11;;;;;;;9.68;6.75;;;;;;;;;;4942383;28;20070;-65
2023/02/09 02:00:36;;;;;;;9.07;6.53;;;;;;;;;;4969884;28;20035;-65
2023/02/09 02:03:06;;;;;;;9.07;6.72;;;;;;;;;;4983122;28;20366;-70
2023/02/09 02:05:33;;;;;;;8.17;6.00;;;;;;;;;;4982540;28;20059;-65
2023/02/09 02:08:01;;;;;;;8.90;6.70;;;;;;;;;;4976035;28;20039;-65
2023/02/09 02:10:27;;;;;;;8.25;6.25;;;;;;;;;;4977457;28;20132;-68
2023/02/09 02:12:52;;;;;;;9.40;6.68;;;;;;;;;;4966566;28;20090;-62
2023/02/09 02:15:18;;;;;;;8.48;6.20;;;;;;;;;;4983740;28;20062;-64
2023/02/09 02:17:43;;;;;;;9.73;6.78;;;;;;;;;;4967297;28;20431;-64
2023/02/09 02:20:23;;;;;;;8.60;6.53;;;;;;;;;;4984043;28;20116;-63
2023/02/09 02:23:04;;;;;;;8.48;6.40;;;;;;;;;;4967262;28;20361;-70
2023/02/09 02:25:48;;;;;;;8.43;6.25;;;;;;;;;;4985108;28;20039;-64
2023/02/09 02:28:19;;;;;;;8.48;6.20;;;;;;;;;;4983681;28;20039;-65
2023/02/09 02:31:23;;;;;;;9.88;7.05;;;;;;;;;;4984474;28;20507;-68
2023/02/09 02:34:17;;;;;;;9.43;6.07;;;;;;;;;;4936471;28;20062;-59
2023/02/09 02:36:51;;;;;;;8.77;6.65;;;;;;;;;;4953606;28;20051;-60
2023/02/09 02:39:27;;;;;;;8.77;6.05;;;;;;;;;;4945808;28;20085;-67
2023/02/09 02:44:40;;;;;;;8.50;6.05;;;;;;;;;;4966737;28;20122;-67
2023/02/09 02:47:05;;;;;;;7.97;6.15;;;;;;;;;;4980867;28;20125;-67
2023/02/09 02:49:34;;;;;;;8.55;6.18;;;;;;;;;;4986802;28;20042;-68
2023/02/09 02:52:00;;;;;;;9.25;6.63;;;;;;;;;;4988159;28;20435;-67
2023/02/09 02:54:27;;;;;;;8.35;6.47;;;;;;;;;;4971277;28;20124;-68
2023/02/09 02:56:54;;;;;;;9.00;6.63;;;;;;;;;;4983752;28;20038;-67
2023/02/09 02:59:21;;;;;;;8.73;6.25;;;;;;;;;;4970890;28;20125;-66
2023/02/09 03:02:06;;;;;;;9.13;6.70;;;;;;;;;;4970339;28;20062;-69
2023/02/09 03:04:32;;;;;;;8.00;6.00;;;;;;;;;;4973753;28;20030;-67
2023/02/09 03:06:57;;;;;;;8.40;6.30;;;;;;;;;;4987228;28;20127;-68
2023/02/09 03:09:22;;;;;;;8.27;5.90;;;;;;;;;;4985917;28;20384;-62
2023/02/09 03:11:48;;;;;;;8.32;5.93;;;;;;;;;;4953207;28;20627;-71
2023/02/09 03:14:26;;;;;;;8.93;6.25;;;;;;;;;;4970157;28;20038;-69
2023/02/09 03:16:55;;;;;;;7.72;5.95;;;;;;;;;;4984693;28;20039;-69
2023/02/09 03:19:23;;;;;;;9.03;6.33;;;;;;;;;;4969037;28;20859;-62
2023/02/09 03:21:50;;;;;;;9.35;6.63;;;;;;;;;;4986523;28;20038;-64
2023/02/09 03:24:22;;;;;;;7.45;5.72;;;;;;;;;;4965868;28;20546;-65
2023/02/09 03:26:51;;;;;;;9.27;6.38;;;;;;;;;;4960800;28;20492;-68
2023/02/09 03:29:17;;;;;;;8.18;5.93;;;;;;;;;;4966122;28;20066;-67
2023/02/09 03:31:42;;;;;;;8.32;6.10;;;;;;;;;;4969367;28;20477;-68
2023/02/09 03:34:07;;;;;;;7.60;5.70;;;;;;;;;;4969432;28;20564;-67
2023/02/09 03:36:34;;;;;;;9.05;6.13;;;;;;;;;;4969081;28;20290;-68
2023/02/09 03:39:00;;;;;;;8.15;5.97;;;;;;;;;;4969957;28;20039;-71
2023/02/09 03:41:25;;;;;;;8.48;5.85;;;;;;;;;;4987306;28;20530;-63
2023/02/09 03:46:35;;;;;;;7.88;5.85;;;;;;;;;;4982045;28;20053;-69
2023/02/09 03:49:00;;;;;;;8.23;5.80;;;;;;;;;;4955226;28;20476;-68
2023/02/09 03:51:25;;;;;;;7.90;5.87;;;;;;;;;;4977694;28;20033;-68
2023/02/09 03:53:50;;;;;;;7.73;5.63;;;;;;;;;;4987384;28;20830;-64
2023/02/09 03:56:16;;;;;;;7.07;5.17;;;;;;;;;;4968918;28;20813;-64
2023/02/09 03:58:41;;;;;;;7.43;5.68;;;;;;;;;;4985749;28;20300;-67
2023/02/09 04:01:07;;;;;;;7.47;5.60;;;;;;;;;;4983211;28;20022;-64
2023/02/09 04:03:32;;;;;;;6.93;5.32;;;;;;;;;;4983871;28;20026;-65
2023/02/09 04:05:58;;;;;;;7.72;5.72;;;;;;;;;;4969219;28;20507;-68
2023/02/09 04:08:23;;;;;;;7.28;5.60;;;;;;;;;;4969691;28;20014;-67
2023/02/09 04:10:48;;;;;;;6.97;5.17;;;;;;;;;;4969613;28;20023;-62
2023/02/09 04:13:13;;;;;;;7.33;5.33;;;;;;;;;;4986036;28;20265;-65
2023/02/09 04:15:39;;;;;;;6.33;5.13;;;;;;;;;;4977805;28;20325;-69
2023/02/09 04:18:04;;;;;;;8.50;5.68;;;;;;;;;;4953082;28;20341;-67
2023/02/09 04:20:29;;;;;;;7.30;5.43;;;;;;;;;;4968953;28;20025;-67
2023/02/09 04:22:54;;;;;;;7.65;5.60;;;;;;;;;;4985568;28;20554;-67
2023/02/09 04:25:20;;;;;;;7.17;4.93;;;;;;;;;;4969738;28;20093;-67
2023/02/09 04:27:45;;;;;;;6.83;4.97;;;;;;;;;;4981920;28;20286;-66
2023/02/09 04:30:10;;;;;;;7.10;5.07;;;;;;;;;;4969671;28;20687;-68
2023/02/09 04:32:36;;;;;;;7.15;5.35;;;;;;;;;;4969059;28;20425;-64
2023/02/09 04:35:01;;;;;;;7.18;5.38;;;;;;;;;;4986311;28;20114;-68
2023/02/09 04:37:26;;;;;;;6.00;4.73;;;;;;;;;;4988820;28;20042;-68
2023/02/09 04:39:51;;;;;;;6.82;5.30;;;;;;;;;;4988356;28;20277;-62
2023/02/09 04:42:17;;;;;;;6.20;4.83;;;;;;;;;;4972377;28;20039;-68
2023/02/09 04:44:42;;;;;;;6.70;4.80;;;;;;;;;;4989180;28;20297;-63
2023/02/09 04:47:07;;;;;;;6.70;4.97;;;;;;;;;;4989504;28;20372;-69
2023/02/09 04:49:32;;;;;;;6.20;4.90;;;;;;;;;;4972398;28;20786;-65
2023/02/09 04:51:58;;;;;;;6.78;4.95;;;;;;;;;;4987871;28;20670;-69
2023/02/09 04:54:23;;;;;;;7.03;5.20;;;;;;;;;;4990154;28;20053;-67
2023/02/09 04:59:33;;;;;;;7.73;4.87;;;;;;;;;;4981188;28;20719;-67
2023/02/09 04:59:33;;;;;;;5.93;4.60;;;;;;;;;;4989297;28;20312;-70
2023/02/09 05:01:59;;;;;;;5.57;4.78;;;;;;;;;;4988467;28;20511;-63
2023/02/09 05:04:24;;;;;;;7.63;4.80;;;;;;;;;;4992475;28;20081;-69
2023/02/09 05:06:49;;;;;;;7.05;4.82;;;;;;;;;;4989895;28;20282;-66
2023/02/09 05:09:14;;;;;;;5.97;4.47;;;;;;;;;;4986923;28;20040;-65
2023/02/09 05:11:39;;;;;;;5.90;4.60;;;;;;;;;;4987964;28;20905;-62
2023/02/09 05:14:05;;;;;;;6.33;4.47;;;;;;;;;;4981527;28;20519;-66
2023/02/09 05:16:30;;;;;;;6.20;4.67;;;;;;;;;;4989761;28;20824;-63
2023/02/09 05:18:55;;;;;;;7.25;4.88;;;;;;;;;;4987930;28;20347;-63
2023/02/09 05:21:20;;;;;;;5.47;4.17;;;;;;;;;;4977271;28;20081;-59
2023/02/09 05:23:46;;;;;;;6.00;4.20;;;;;;;;;;4988960;28;20658;-60
2023/02/09 05:26:11;;;;;;;8.33;4.73;;;;;;;;;;4971342;28;20534;-61
2023/02/09 05:28:36;;;;;;;6.53;4.37;;;;;;;;;;4996319;28;20349;-66
2023/02/09 05:31:01;;;;;;;6.20;4.13;;;;;;;;;;4954205;28;20304;-62
2023/02/09 05:33:27;;;;;;;6.43;4.33;;;;;;;;;;4989440;28;20062;-62
2023/02/09 05:35:52;;;;;;;9.07;4.40;;;;;;;;;;4988678;28;20856;-61
2023/02/09 05:38:17;;;;;;;5.68;4.15;;;;;;;;;;4970116;28;20297;-60
2023/02/09 05:40:42;;;;;;;6.73;4.37;;;;;;;;;;4977333;28;20169;-60
2023/02/09 05:43:08;;;;;;;7.05;4.82;;;;;;;;;;4989080;28;20285;-62
2023/02/09 05:45:33;;;;;;;4.80;3.97;;;;;;;;;;4969897;28;20515;-66
2023/02/09 05:47:58;;;;;;;5.37;4.03;;;;;;;;;;4965886;28;20340;-65
2023/02/09 05:50:23;;;;;;;5.47;4.07;;;;;;;;;;4952612;28;20349;-61
2023/02/09 05:52:49;;;;;;;5.57;4.05;;;;;;;;;;4967930;28;20440;-64
2023/02/09 05:55:14;;;;;;;5.93;4.47;;;;;;;;;;4967754;28;20031;-62
2023/02/09 05:57:39;;;;;;;5.53;4.03;;;;;;;;;;4966516;28;20074;-68
2023/02/09 06:00:05;;;;;;;6.27;4.03;;;;;;;;;;4951328;28;20687;-69
2023/02/09 06:02:30;;;;;;;5.22;3.95;;;;;;;;;;4952199;28;20492;-67
2023/02/09 06:04:55;;;;;;;4.38;3.90;;;;;;;;;;4969276;28;20642;-66
2023/02/09 06:07:20;;;;;;;5.30;3.87;;;;;;;;;;4967935;28;20027;-61
2023/02/09 06:09:46;;;;;;;4.83;3.80;;;;;;;;;;4969897;28;20798;-65
2023/02/09 06:12:11;;;;;;;5.10;3.93;;;;;;;;;;4949420;28;20636;-67
2023/02/09 06:14:36;;;;;;;5.18;3.90;;;;;;;;;;4962159;28;20273;-65
2023/02/09 06:17:01;;;;;;;5.00;3.73;;;;;;;;;;4969586;28;20496;-64
2023/02/09 06:19:27;;;;;;;5.00;3.60;;;;;;;;;;4968392;28;20647;-70
2023/02/09 06:21:52;;;;;;;4.37;3.67;;;;;;;;;;4949613;28;20718;-67
2023/02/09 06:24:17;;;;;;;4.87;3.53;;;;;;;;;;4968916;28;20296;-68
2023/02/09 06:26:42;;;;;;;4.05;3.35;;;;;;;;;;4951963;28;20031;-68
2023/02/09 06:29:08;;;;;;;5.00;3.55;;;;;;;;;;4949497;28;20038;-66
2023/02/09 06:31:33;;;;;;;4.70;3.22;;;;;;;;;;4967891;28;20050;-61
2023/02/09 06:33:59;;;;;;;4.80;3.53;;;;;;;;;;4949734;28;20038;-61
2023/02/09 06:36:24;;;;;;;4.93;3.40;;;;;;;;;;4944149;28;20528;-66
2023/02/09 06:38:49;;;;;;;4.97;3.43;;;;;;;;;;4966613;28;20297;-63
2023/02/09 06:41:14;;;;;;;5.00;3.23;;;;;;;;;;4968105;28;20290;-60
2023/02/09 06:43:40;;;;;;;5.40;3.53;;;;;;;;;;4965565;28;20289;-60
2023/02/09 06:46:06;;;;;;;5.20;3.10;;;;;;;;;;4949116;28;20380;-61
2023/02/09 06:48:31;;;;;;;4.05;3.22;;;;;;;;;;4950159;28;20284;-64
2023/02/09 06:50:56;;;;;;;6.53;3.50;;;;;;;;;;4951059;28;20551;-65
2023/02/09 06:53:21;;;;;;;4.53;3.60;;;;;;;;;;4949623;28;20369;-60
2023/02/09 06:55:47;;;;;;;4.80;3.70;;;;;;;;;;4948544;28;20285;-59
2023/02/09 06:58:12;;;;;;;4.00;3.30;;;;;;;;;;4966780;28;20357;-63
2023/02/09 07:00:37;;;;;;;5.57;3.20;;;;;;;;;;4966186;28;20277;-61
2023/02/09 07:03:03;;;;;;;4.50;3.00;;;;;;;;;;4950635;28;20393;-64
2023/02/09 07:05:28;;;;;;;5.13;3.55;;;;;;;;;;4966766;28;20302;-63
2023/02/09 07:07:54;;;;;;;5.10;3.40;;;;;;;;;;4949957;28;20031;-63
2023/02/09 07:10:20;;;;;;;4.28;3.30;;;;;;;;;;4949965;28;20042;-59
2023/02/09 07:12:45;;;;;;;4.35;3.10;;;;;;;;;;4934100;28;20393;-62
2023/02/09 07:15:11;;;;;;;4.67;3.27;;;;;;;;;;4967076;28;20375;-64
2023/02/09 07:17:36;;;;;;;5.03;3.33;;;;;;;;;;4950265;28;20023;-61
2023/02/09 07:20:01;;;;;;;4.20;3.07;;;;;;;;;;4960142;28;20368;-63
2023/02/09 07:22:26;;;;;;;4.60;3.30;;;;;;;;;;4949641;28;20364;-61
2023/02/09 07:24:52;;;;;;;4.72;3.28;;;;;;;;;;4949814;28;20603;-61
2023/02/09 07:27:17;;;;;;;4.90;3.20;;;;;;;;;;4933506;28;20458;-62
2023/02/09 07:29:42;;;;;;;4.80;3.58;;;;;;;;;;4954968;28;20289;-67
2023/02/09 07:32:08;;;;;;;5.05;3.40;;;;;;;;;;4966231;28;20503;-64
2023/02/09 07:34:33;;;;;;;5.78;3.67;;;;;;;;;;4951325;28;20652;-66
2023/02/09 07:36:58;;;;;;;4.60;3.30;;;;;;;;;;4944109;28;20423;-65
2023/02/09 07:39:24;;;;;;;3.87;2.90;;;;;;;;;;4966669;28;20093;-64
2023/02/09 07:41:49;;;;;;;5.20;3.15;;;;;;;;;;4950230;28;20274;-63
2023/02/09 07:44:14;;;;;;;5.23;3.60;;;;;;;;;;4968420;28;20534;-65
2023/02/09 07:46:40;;;;;;;4.80;3.50;;;;;;;;;;4975440;28;20290;-59
2023/02/09 07:49:05;;;;;;;3.60;2.90;;;;;;;;;;4986717;28;20278;-60
2023/02/09 07:51:30;;;;;;;4.50;3.40;;;;;;;;;;4987651;28;20395;-62
2023/02/09 07:53:55;;;;;;;4.53;3.20;;;;;;;;;;4986844;28;20349;-64
2023/02/09 07:56:21;;;;;;;4.30;3.28;;;;;;;;;;4953432;28;20273;-60
2023/02/09 07:58:46;;;;;;;5.40;3.42;;;;;;;;;;4977704;28;20263;-63
2023/02/09 08:01:11;;;;;;;4.70;3.30;;;;;;;;;;4965427;28;20439;-61
2023/02/09 08:03:37;;;;;;;4.77;3.00;;;;;;;;;;4968276;28;20088;-64
2023/02/09 08:06:05;;;;;;;4.15;3.17;;;;;;;;;;4969620;28;20650;-66
2023/02/09 08:08:30;;;;;;;5.15;3.88;;;;;;;;;;4985754;28;20165;-62
2023/02/09 08:10:56;;;;;;;4.53;3.67;;;;;;;;;;4970599;28;20136;-62
2023/02/09 08:13:22;;;;;;;4.63;3.50;;;;;;;;;;4978548;28;20285;-60
2023/02/09 08:15:48;;;;;;;4.95;3.17;;;;;;;;;;4991637;28;20022;-62
2023/02/09 08:18:15;;;;;;;5.07;3.30;;;;;;;;;;4991137;28;20089;-63
2023/02/09 08:20:40;;;;;;;4.60;3.03;;;;;;;;;;4973941;28;20038;-61
2023/02/09 08:23:07;;;;;;;5.63;3.17;;;;;;;;;;4991149;28;20050;-65
2023/02/09 08:25:32;;;;;;;5.13;3.50;;;;;;;;;;4990452;28;20274;-66
2023/02/09 08:27:58;;;;;;;4.72;3.33;;;;;;;;;;4973057;28;20368;-61
2023/02/09 08:30:23;;;;;;;4.32;3.22;;;;;;;;;;4961872;28;20078;-64
2023/02/09 08:32:48;;;;;;;4.37;3.40;;;;;;;;;;4972961;28;20037;-62
2023/02/09 08:35:13;;;;;;;5.80;3.60;;;;;;;;;;4965915;28;20316;-67
2023/02/09 08:37:39;;;;;;;4.15;3.10;;;;;;;;;;4973797;28;20376;-59
2023/02/09 08:40:04;;;;;;;5.43;3.33;;;;;;;;;;4973921;28;20045;-64
2023/02/09 08:42:29;;;;;;;4.00;3.10;;;;;;;;;;4954411;28;20273;-62
2023/02/09 08:44:55;;;;;;;4.38;3.10;;;;;;;;;;4981192;28;20127;-62
2023/02/09 08:47:21;;;;;;;4.40;3.25;;;;;;;;;;4975776;28;20042;-66
2023/02/09 08:49:46;;;;;;;5.85;3.67;;;;;;;;;;4971236;28;20015;-68
2023/02/09 08:52:12;;;;;;;5.72;3.75;;;;;;;;;;4953383;28;20390;-63
2023/02/09 08:54:37;;;;;;;4.20;3.38;;;;;;;;;;4952768;28;20549;-62
2023/02/09 08:57:02;;;;;;;4.22;3.00;;;;;;;;;;4970604;28;20049;-66
2023/02/09 08:59:28;;;;;;;4.40;3.35;;;;;;;;;;4970555;28;20427;-66
2023/02/09 09:01:53;;;;;;;4.97;3.10;;;;;;;;;;4970394;28;20090;-63
2023/02/09 09:04:20;;;;;;;4.57;3.10;;;;;;;;;;4970252;28;20031;-62
2023/02/09 09:06:45;;;;;;;3.72;2.88;;;;;;;;;;4970497;28;20098;-60
2023/02/09 09:09:10;;;;;;;4.97;3.40;;;;;;;;;;4952511;28;20191;-61
2023/02/09 09:11:35;;;;;;;4.27;3.10;;;;;;;;;;4968961;28;20054;-61
2023/02/09 09:14:01;;;;;;;4.23;2.93;;;;;;;;;;4969972;28;20278;-59
2023/02/09 09:16:26;;;;;;;5.00;3.47;;;;;;;;;;4970081;28;20309;-61
2023/02/09 09:18:51;;;;;;;4.72;3.15;;;;;;;;;;4969774;28;20282;-65
2023/02/09 09:21:17;;;;;;;4.35;2.92;;;;;;;;;;4968659;28;20040;-62
2023/02/09 09:23:42;;;;;;;3.28;2.65;;;;;;;;;;4968290;28;20027;-64
2023/02/09 09:26:07;;;;;;;3.75;2.75;;;;;;;;;;4952272;28;20043;-66
2023/02/09 09:28:33;;;;;;;5.13;3.10;;;;;;;;;;4948615;29;20062;-62
2023/02/09 09:31:04;;;;;;;4.30;3.00;;;;;;;;;;4966190;28;20783;-65
2023/02/09 09:33:29;;;;;;;4.60;3.20;;;;;;;;;;4952124;28;20779;-66
2023/02/09 09:35:55;;;;;;;3.67;2.80;;;;;;;;;;4952190;28;20037;-63
2023/02/09 09:38:20;;;;;;;4.25;3.03;;;;;;;;;;4968328;28;20381;-61
2023/02/09 09:40:45;;;;;;;4.73;3.00;;;;;;;;;;4952118;28;20117;-61
2023/02/09 09:43:17;;;;;;;4.20;2.70;;;;;;;;;;4951501;28;20329;-60
2023/02/09 09:45:43;;;;;;;3.80;2.90;;;;;;;;;;4968714;28;20278;-61
2023/02/09 09:48:21;;;;;;;5.40;3.05;;;;;;;;;;4987318;28;20509;-62
2023/02/09 09:50:47;;;;;;;4.10;2.83;;;;;;;;;;4988909;28;20046;-64
2023/02/09 09:53:35;;;;;;;4.10;2.83;;;;;;;;;;4987397;28;20374;-63
2023/02/09 09:56:02;;;;;;;4.78;3.22;;;;;;;;;;4983189;28;20034;-60
2023/02/09 09:58:28;;;;;;;4.30;2.70;;;;;;;;;;4988605;28;20065;-63
2023/02/09 10:00:54;;;;;;;4.07;2.80;;;;;;;;;;4970910;28;20030;-71
2023/02/09 10:03:20;;;;;;;4.75;2.90;;;;;;;;;;4988356;28;20100;-73
2023/02/09 10:05:46;;;;;;;4.28;2.90;;;;;;;;;;4969668;28;20043;-67
2023/02/09 10:08:16;;;;;;;4.25;2.65;;;;;;;;;;4979762;28;20034;-66
2023/02/09 10:10:50;;;;;;;3.88;2.70;;;;;;;;;;4990032;28;20069;-65
2023/02/09 10:13:19;;;;;;;3.85;2.80;;;;;;;;;;4988339;28;20010;-70
2023/02/09 10:15:48;;;;;;;3.92;2.90;;;;;;;;;;4972000;28;20015;-71
2023/02/09 10:18:14;;;;;;;3.42;2.70;;;;;;;;;;4972363;28;20057;-65
2023/02/09 10:20:46;;;;;;;3.88;2.72;;;;;;;;;;4961378;28;20034;-64
2023/02/09 10:23:22;;;;;;;4.45;2.65;;;;;;;;;;4989899;28;20075;-69
2023/02/09 10:25:48;;;;;;;4.60;3.47;;;;;;;;;;4988647;28;20034;-66
2023/02/09 10:28:24;;;;;;;5.93;3.63;;;;;;;;;;4988735;28;20038;-69
2023/02/09 10:30:49;;;;;;;5.82;3.50;;;;;;;;;;4955444;28;20109;-68
2023/02/09 10:33:15;;;;;;;5.63;3.95;;;;;;;;;;4987608;28;20121;-65
2023/02/09 10:35:42;;;;;;;6.40;3.33;;;;;;;;;;4988629;28;20034;-72
2023/02/09 10:38:10;;;;;;;5.57;3.78;;;;;;;;;;4970841;28;20352;-67
2023/02/09 10:40:38;;;;;;;5.40;3.38;;;;;;;;;;4987515;28;20737;-66
2023/02/09 10:43:04;;;;;;;5.43;3.70;;;;;;;;;;4970818;28;20045;-66
2023/02/09 10:45:37;;;;;;;4.78;3.60;;;;;;;;;;4971108;28;20555;-66
2023/02/09 10:48:11;;;;;;;4.97;3.35;;;;;;;;;;4996931;28;20134;-60
2023/02/09 10:50:48;;;;;;;5.95;3.58;;;;;;;;;;5004755;28;20045;-58
2023/02/09 10:53:20;;;;;;;5.65;3.88;;;;;;;;;;5008233;28;20035;-67
2023/02/09 10:55:45;;;;;;;4.72;3.45;;;;;;;;;;4988718;28;20034;-64
2023/02/09 10:58:10;;;;;;;4.97;3.50;;;;;;;;;;4976337;28;20088;-72
2023/02/09 11:00:37;;;;;;;5.53;3.67;;;;;;;;;;4987304;28;20064;-71
2023/02/09 11:03:16;;;;;;;5.50;3.47;;;;;;;;;;4969668;28;20317;-69
2023/02/09 11:05:42;;;;;;;5.05;3.58;;;;;;;;;;4968473;28;20041;-61
2023/02/09 11:08:20;;;;;;;5.32;3.55;;;;;;;;;;4986974;28;20030;-71
2023/02/09 11:10:57;;;;;;;5.53;3.85;;;;;;;;;;4977330;28;20046;-68
2023/02/09 11:13:23;;;;;;;4.47;3.17;;;;;;;;;;4959982;28;20031;-70
2023/02/09 11:16:04;;;;;;;5.03;3.42;;;;;;;;;;4969015;28;20081;-66
2023/02/09 11:18:31;;;;;;;4.40;3.05;;;;;;;;;;4967597;28;20153;-61
2023/02/09 11:21:05;;;;;;;4.13;3.20;;;;;;;;;;4967034;28;20041;-66
2023/02/09 11:23:52;;;;;;;4.40;3.20;;;;;;;;;;4986653;28;20153;-71
2023/02/09 11:26:26;;;;;;;5.80;3.53;;;;;;;;;;4969383;28;20454;-68
2023/02/09 11:29:10;;;;;;;4.65;3.10;;;;;;;;;;4986706;28;20114;-71
2023/02/09 11:31:54;;;;;;;4.55;3.00;;;;;;;;;;4987771;28;20133;-73
2023/02/09 11:34:23;;;;;;;4.65;3.47;;;;;;;;;;4987620;28;20380;-72
2023/02/09 11:37:01;;;;;;;3.90;3.03;;;;;;;;;;4981449;28;20481;-69
2023/02/09 11:39:35;;;;;;;4.45;3.20;;;;;;;;;;4969237;28;20101;-71
2023/02/09 11:44:52;;;;;;;4.47;3.25;;;;;;;;;;4973420;28;20025;-68
2023/02/09 11:47:19;;;;;;;4.40;3.25;;;;;;;;;;4987071;28;20064;-62
2023/02/09 11:49:45;;;;;;;4.28;3.08;;;;;;;;;;4967784;28;20022;-67
2023/02/09 11:52:12;;;;;;;3.92;3.13;;;;;;;;;;4971047;28;20408;-70
2023/02/09 11:54:38;;;;;;;4.28;2.78;;;;;;;;;;4988000;28;20049;-72
2023/02/09 11:57:06;;;;;;;4.55;3.30;;;;;;;;;;4987534;28;20034;-65
2023/02/09 11:59:31;;;;;;;4.47;3.10;;;;;;;;;;4961972;28;20077;-65
2023/02/09 12:02:17;;;;;;;4.47;3.00;;;;;;;;;;4986860;28;20045;-69
2023/02/09 12:04:42;;;;;;;3.92;3.10;;;;;;;;;;4959567;28;20059;-65
2023/02/09 12:07:28;;;;;;;4.13;2.97;;;;;;;;;;4986414;28;20122;-74
2023/02/09 12:09:57;;;;;;;3.67;2.67;;;;;;;;;;4988321;28;20030;-66
2023/02/09 12:12:35;;;;;;;4.47;3.00;;;;;;;;;;4970281;28;20074;-61
2023/02/09 12:15:03;;;;;;;4.43;3.17;;;;;;;;;;4986187;28;20125;-66
2023/02/09 12:17:47;;;;;;;3.63;2.80;;;;;;;;;;4987297;28;20038;-67
2023/02/09 12:20:19;;;;;;;3.85;2.65;;;;;;;;;;4987129;28;20046;-63
2023/02/09 12:22:49;;;;;;;3.70;2.80;;;;;;;;;;4970130;28;20022;-64
2023/02/09 12:25:14;;;;;;;;;;;;;;;;;;4988059;28;20030;-67
2023/02/09 12:27:40;;;;;;;3.85;2.50;;;;;;;;;;4988141;28;19956;-66
2023/02/09 12:30:24;;;;;;;3.85;3.13;;;;;;;;;;4969946;28;20031;-65
2023/02/09 12:32:49;;;;;;;3.92;2.92;;;;;;;;;;4974499;28;20026;-67
2023/02/09 12:35:23;;;;;;;3.70;2.73;;;;;;;;;;4986101;28;20438;-66
2023/02/09 12:38:08;;;;;;;3.83;2.97;;;;;;;;;;4987602;28;20356;-64
2023/02/09 12:40:35;;;;;;;3.80;2.50;;;;;;;;;;4972591;28;20035;-66
2023/02/09 12:43:00;;;;;;;4.05;2.80;;;;;;;;;;4970185;28;20076;-66
2023/02/09 12:45:25;;;;;;;3.47;2.77;;;;;;;;;;4986983;28;20471;-66
2023/02/09 12:47:55;;;;;;;3.20;2.60;;;;;;;;;;4979557;28;20089;-67
2023/02/09 12:50:26;;;;;;;3.22;2.90;;;;;;;;;;4965873;28;20022;-67
2023/02/09 12:53:09;;;;;;;3.50;2.58;;;;;;;;;;4965855;28;20050;-62
2023/02/09 12:55:36;;;;;;;3.72;2.75;;;;;;;;;;4967013;28;20035;-65
2023/02/09 12:58:02;;;;;;;5.22;2.92;;;;;;;;;;4970707;28;20212;-69
2023/02/09 13:00:29;;;;;;;3.63;2.50;;;;;;;;;;4968913;28;20127;-63
2023/02/09 13:02:55;;;;;;;3.72;2.65;;;;;;;;;;4953573;28;20154;-67
2023/02/09 13:05:24;;;;;;;3.75;2.60;;;;;;;;;;4968892;28;20031;-67
2023/02/09 13:07:54;;;;;;;3.10;2.37;;;;;;;;;;4969833;28;20030;-66
2023/02/09 13:10:19;;;;;;;2.75;2.25;;;;;;;;;;4953101;28;20306;-64
2023/02/09 13:12:46;;;;;;;3.17;2.30;;;;;;;;;;4971472;28;20417;-69
2023/02/09 13:15:12;;;;;;;3.67;2.40;;;;;;;;;;4972850;28;20278;-71
2023/02/09 13:17:38;;;;;;;3.13;2.60;;;;;;;;;;4971410;28;20030;-68
2023/02/09 13:20:22;;;;;;;3.50;2.50;;;;;;;;;;4953869;28;20412;-69
2023/02/09 13:23:20;;;;;;;3.55;2.67;;;;;;;;;;4971531;28;20062;-68
2023/02/09 13:25:46;;;;;;;3.97;2.92;;;;;;;;;;4919036;28;20479;-66
2023/02/09 13:28:25;;;;;;;3.20;2.50;;;;;;;;;;4955805;28;20030;-67
2023/02/09 13:30:50;;;;;;;2.95;2.65;;;;;;;;;;4956842;28;20055;-63
2023/02/09 13:33:21;;;;;;;3.00;2.27;;;;;;;;;;4969892;28;20578;-65
2023/02/09 13:35:53;;;;;;;4.18;2.10;;;;;;;;;;4970299;28;20345;-66
2023/02/09 13:38:20;;;;;;;3.20;2.35;;;;;;;;;;4970126;28;20029;-65
2023/02/09 13:40:46;;;;;;;3.42;2.40;;;;;;;;;;4970551;28;20430;-61
2023/02/09 13:43:11;;;;;;;3.00;2.17;;;;;;;;;;4970075;28;20129;-61
2023/02/09 13:45:45;;;;;;;3.63;2.73;;;;;;;;;;4971736;28;20531;-68
2023/02/09 13:48:29;;;;;;;2.78;2.45;;;;;;;;;;4971907;28;20495;-66
2023/02/09 13:50:55;;;;;;;3.22;2.22;;;;;;;;;;4988932;28;20046;-65
2023/02/09 13:53:21;;;;;;;3.65;2.67;;;;;;;;;;4988223;28;20022;-62
2023/02/09 13:55:48;;;;;;;3.03;2.42;;;;;;;;;;4988779;28;20141;-66
2023/02/09 13:58:15;;;;;;;2.90;2.25;;;;;;;;;;4972165;28;20030;-64
2023/02/09 14:00:44;;;;;;;3.30;2.50;;;;;;;;;;4987567;28;20052;-63
2023/02/09 14:03:14;;;;;;;3.47;2.60;;;;;;;;;;4971519;28;20026;-64
2023/02/09 14:05:39;;;;;;;3.17;2.20;;;;;;;;;;4975194;28;20627;-62
2023/02/09 14:08:04;;;;;;;3.03;2.50;;;;;;;;;;4988438;28;20032;-63
2023/02/09 14:10:29;;;;;;;3.87;2.53;;;;;;;;;;4988073;28;20142;-66
2023/02/09 14:12:58;;;;;;;3.93;2.40;;;;;;;;;;4987236;28;20495;-66
2023/02/09 14:18:29;;;;;;;3.65;2.70;;;;;;;;;;4988797;28;20882;-65
2023/02/09 14:21:02;;;;;;;3.60;2.20;;;;;;;;;;4987870;28;20465;-68
2023/02/09 14:23:31;;;;;;;2.95;2.30;;;;;;;;;;4986726;28;20033;-60
2023/02/09 14:26:04;;;;;;;2.72;2.35;;;;;;;;;;4988567;28;20026;-65
2023/02/09 14:28:29;;;;;;;2.80;2.17;;;;;;;;;;4971001;28;20354;-61
2023/02/09 14:30:54;;;;;;;2.83;2.53;;;;;;;;;;4971074;28;20042;-63
2023/02/09 14:33:27;;;;;;;3.40;2.20;;;;;;;;;;4988429;28;20357;-65
2023/02/09 14:35:57;;;;;;;2.60;2.00;;;;;;;;;;4970927;28;20121;-65
2023/02/09 14:38:33;;;;;;;5.38;2.13;;;;;;;;;;4970902;28;20737;-68
2023/02/09 14:40:58;;;;;;;2.72;2.00;;;;;;;;;;4971048;28;20495;-66
2023/02/09 14:43:23;;;;;;;3.50;2.33;;;;;;;;;;4988253;28;20049;-63
2023/02/09 14:45:56;;;;;;;2.92;2.10;;;;;;;;;;4986978;28;20265;-63
2023/02/09 14:48:22;;;;;;;3.25;2.30;;;;;;;;;;4988790;28;20038;-66
2023/02/09 14:50:48;;;;;;;3.15;2.40;;;;;;;;;;4988656;28;20043;-65
2023/02/09 14:53:14;;;;;;;3.28;2.38;;;;;;;;;;4987575;28;20073;-66
2023/02/09 14:55:39;;;;;;;3.00;2.20;;;;;;;;;;4970099;28;20531;-60
2023/02/09 14:58:30;;;;;;;2.50;1.97;;;;;;;;;;4986520;28;20038;-62